C719 Diversion




Date Battery Voltage (V) Gauge Height (ft) Canal Flow (cfs) Gate 1 Height (ft) Gate 2 Height (ft) Pond (ft) Pond Height (ft) Pond Battery Voltage (V) Pond RF Signal (db) Call Fails Total Fails Tries Auto Pond Pond Set (ft) Gate 1 Warning Gate 2 Warning Gate 1 Up Total Gate 1 Down Total Gate 2 Up Total Gate 2 Down Total Settle Count Auto CFS CFS Set (cfs)
05/01/2017 13.0 0.12 1.75 1.76 0.36
05/02/2017 13.0 0.12 1.72 1.76 0.36
05/03/2017 13.0 0.12 1.61 1.76 0.36
05/04/2017 12.9 0.11 1.42 1.76 0.36
05/05/2017 12.9 0.11 1.45 1.76 0.36
05/06/2017 12.9 0.11 1.37 1.76 0.36
05/07/2017 12.9 0.10 1.26 1.76 0.36
05/08/2017 12.9 0.09 1.11 1.76 0.36
05/09/2017 12.9 0.09 1.05 1.76 0.36
05/10/2017 12.9 0.09 1.00 1.76 0.36
05/11/2017 13.1 0.08 0.86 1.76 0.36
05/12/2017 13.0 0.01 0.00 1.76 0.36
05/13/2017 13.0 0.18 0.00 1.76 0.36
05/14/2017 13.1 0.51 14.43 1.76 0.36
05/15/2017 13.1 0.52 14.67 1.76 0.36
05/16/2017 13.1 0.45 12.31 1.36 0.35
05/17/2017 13.1 0.20 3.67 0.20 0.32
05/18/2017 13.3 0.16 2.48 0.20 0.32
05/19/2017 13.2 0.11 1.43 0.20 0.32
05/20/2017 13.3 0.09 1.08 0.20 0.32
05/21/2017 13.2 0.02 0.00 0.20 0.32
05/22/2017 13.2 -0.12 0.00 0.20 0.32
05/23/2017 13.1 -0.28 0.00 0.20 0.32
05/24/2017 13.1 -0.46 0.00 0.20 0.31
05/25/2017 13.0 -0.36 0.00 0.20 0.31
05/26/2017 13.1 0.16 2.49 0.20 0.31
05/27/2017 13.2 0.20 3.61 0.20 0.31
05/28/2017 13.1 0.20 3.61 0.20 0.31
05/29/2017 13.1 0.20 3.61 0.20 0.31
05/30/2017 13.0 0.20 3.64 0.20 0.31
05/31/2017 13.0 0.20 3.61 0.20 0.31
Average 2.75 0.00
Maximum 14.67
Minimum 0.00
Total Volume (AF) 169.03 0.00